Time;durP1;ratioP1;P1;durP2;ratioP2;P2;SDS_P1;SDS_P2;PMS_P1;PMS_P2;Temp;Humidity;BMP_temperature;BMP_pressure;BME280_temperature;BME280_humidity;BME280_pressure;Samples;Min_cycle;Max_cycle;Signal;HPM_P1;HPM_P2
2022/01/28 00:00:06;;;;;;;10.43;5.93;;;;;;;;;;7393611;19;20397;-81
2022/01/28 00:05:21;;;;;;;10.52;5.53;;;;;;;;;;7393943;19;20017;-80
2022/01/28 00:07:48;;;;;;;11.77;5.80;;;;;;;;;;7393434;19;20013;-79
2022/01/28 00:10:14;;;;;;;9.15;5.35;;;;;;;;;;7390300;19;20131;-79
2022/01/28 00:12:56;;;;;;;12.20;5.50;;;;;;;;;;7392010;19;20018;-78
2022/01/28 00:15:30;;;;;;;11.18;5.57;;;;;;;;;;7393741;19;20349;-78
2022/01/28 00:37:03;;;;;;;8.02;4.40;;;;;;;;;;7395109;19;20055;-79
2022/01/28 00:39:28;;;;;;;8.50;4.40;;;;;;;;;;7395487;19;20002;-79
2022/01/28 00:41:53;;;;;;;6.75;4.10;;;;;;;;;;7389988;19;20017;-78
2022/01/28 00:44:19;;;;;;;9.00;4.93;;;;;;;;;;7393329;19;20045;-78
2022/01/28 00:46:44;;;;;;;8.07;4.53;;;;;;;;;;7395332;19;20014;-79
2022/01/28 00:49:10;;;;;;;8.13;4.78;;;;;;;;;;7393712;19;20006;-78
2022/01/28 00:51:36;;;;;;;7.65;4.40;;;;;;;;;;7393230;19;20477;-79
2022/01/28 00:54:01;;;;;;;7.90;4.43;;;;;;;;;;7394480;19;20005;-78
2022/01/28 00:56:26;;;;;;;8.07;4.20;;;;;;;;;;7393879;19;20325;-78
2022/01/28 00:58:51;;;;;;;7.10;3.92;;;;;;;;;;7392825;19;20006;-79
2022/01/28 01:01:17;;;;;;;5.38;3.55;;;;;;;;;;7391747;19;20022;-78
2022/01/28 01:03:42;;;;;;;6.30;3.80;;;;;;;;;;7393516;19;20002;-79
2022/01/28 01:06:07;;;;;;;6.75;3.83;;;;;;;;;;7392606;19;20010;-78
2022/01/28 01:08:33;;;;;;;8.45;4.22;;;;;;;;;;7392147;19;20010;-79
2022/01/28 01:10:59;;;;;;;8.02;4.30;;;;;;;;;;7389371;19;20003;-80
2022/01/28 01:13:24;;;;;;;7.03;3.72;;;;;;;;;;7393724;19;20018;-80
2022/01/28 01:15:54;;;;;;;6.38;3.88;;;;;;;;;;7390641;19;20422;-79
2022/01/28 01:18:25;;;;;;;9.48;4.53;;;;;;;;;;7393897;19;20062;-78
2022/01/28 01:21:03;;;;;;;6.00;3.65;;;;;;;;;;7391312;19;20025;-78
2022/01/28 01:23:34;;;;;;;6.97;4.10;;;;;;;;;;7390540;19;20018;-78
2022/01/28 01:28:33;;;;;;;8.70;4.38;;;;;;;;;;7394219;19;20006;-79
2022/01/28 01:31:00;;;;;;;7.97;4.25;;;;;;;;;;7390233;19;20142;-79
2022/01/28 01:33:28;;;;;;;6.85;3.45;;;;;;;;;;7391717;19;20010;-78
2022/01/28 01:35:54;;;;;;;8.30;4.10;;;;;;;;;;7390038;19;20003;-79
2022/01/28 01:38:24;;;;;;;6.13;3.60;;;;;;;;;;7391123;19;20478;-77
2022/01/28 01:40:56;;;;;;;7.53;3.72;;;;;;;;;;7393592;19;20343;-79
2022/01/28 01:53:48;;;;;;;5.80;3.58;;;;;;;;;;7393345;19;20559;-79
2022/01/28 01:56:14;;;;;;;6.90;4.32;;;;;;;;;;7392368;19;20002;-79
2022/01/28 01:58:41;;;;;;;7.18;3.92;;;;;;;;;;7388964;19;20022;-79
2022/01/28 02:01:06;;;;;;;6.55;4.10;;;;;;;;;;7388451;19;20011;-79
2022/01/28 02:03:31;;;;;;;5.78;3.88;;;;;;;;;;7392694;19;20020;-79
2022/01/28 02:05:58;;;;;;;6.07;3.78;;;;;;;;;;7388456;19;20007;-79
2022/01/28 02:08:29;;;;;;;9.10;4.55;;;;;;;;;;7389562;19;20003;-80
2022/01/28 02:10:59;;;;;;;9.18;4.20;;;;;;;;;;7390857;19;20015;-77
2022/01/28 02:13:36;;;;;;;5.85;3.50;;;;;;;;;;7391139;19;20014;-80
2022/01/28 02:16:01;;;;;;;7.25;3.95;;;;;;;;;;7391287;19;20013;-80
2022/01/28 02:18:26;;;;;;;6.68;4.22;;;;;;;;;;7390310;19;20082;-79
2022/01/28 02:20:55;;;;;;;7.03;4.00;;;;;;;;;;7389392;19;20351;-78
2022/01/28 02:23:22;;;;;;;6.07;3.55;;;;;;;;;;7390390;19;20018;-79
2022/01/28 02:25:48;;;;;;;6.22;3.25;;;;;;;;;;7385741;19;20465;-79
2022/01/28 02:28:17;;;;;;;7.07;3.72;;;;;;;;;;7388744;19;20044;-79
2022/01/28 02:30:42;;;;;;;8.70;4.20;;;;;;;;;;7387605;19;20014;-79
2022/01/28 02:33:19;;;;;;;7.72;3.83;;;;;;;;;;7390224;19;20282;-78
2022/01/28 02:35:47;;;;;;;6.55;3.80;;;;;;;;;;7397048;19;20450;-81
2022/01/28 02:38:14;;;;;;;7.72;3.90;;;;;;;;;;7393364;19;20324;-79
2022/01/28 02:40:44;;;;;;;6.85;3.72;;;;;;;;;;7396082;19;20019;-79
2022/01/28 02:45:42;;;;;;;5.95;3.35;;;;;;;;;;7395133;19;20011;-79
2022/01/28 02:48:15;;;;;;;6.72;3.17;;;;;;;;;;7394027;19;20018;-79
2022/01/28 02:51:17;;;;;;;5.25;3.22;;;;;;;;;;7394381;19;20009;-78
2022/01/28 02:54:44;;;;;;;6.88;3.35;;;;;;;;;;7393058;19;20489;-78
2022/01/28 02:58:54;;;;;;;7.97;3.20;;;;;;;;;;7395781;19;20066;-79
2022/01/28 03:01:20;;;;;;;5.68;3.35;;;;;;;;;;7393095;19;20031;-78
2022/01/28 03:03:47;;;;;;;5.28;3.22;;;;;;;;;;7394711;19;20806;-80
2022/01/28 03:06:14;;;;;;;8.82;3.28;;;;;;;;;;7398218;19;20006;-79
2022/01/28 03:08:50;;;;;;;6.72;3.35;;;;;;;;;;7393998;19;20003;-79
2022/01/28 03:16:30;;;;;;;10.25;4.22;;;;;;;;;;7399254;19;20014;-82
2022/01/28 03:19:00;;;;;;;7.63;4.15;;;;;;;;;;7396417;19;20438;-80
2022/01/28 03:21:54;;;;;;;9.32;4.32;;;;;;;;;;7398450;19;20006;-80
2022/01/28 03:24:12;;;;;;;6.70;4.07;;;;;;;;;;7397537;19;20010;-80
2022/01/28 03:26:38;;;;;;;8.38;3.97;;;;;;;;;;7395986;19;20424;-80
2022/01/28 03:29:05;;;;;;;4.93;3.58;;;;;;;;;;7397514;19;20019;-80
2022/01/28 03:31:30;;;;;;;6.90;3.83;;;;;;;;;;7395854;19;20009;-80
2022/01/28 03:33:56;;;;;;;7.60;4.32;;;;;;;;;;7395165;19;20182;-79
2022/01/28 03:36:21;;;;;;;5.45;3.33;;;;;;;;;;7397548;19;20006;-82
2022/01/28 03:38:48;;;;;;;6.43;3.83;;;;;;;;;;7396831;19;20035;-80
2022/01/28 03:41:16;;;;;;;5.53;3.50;;;;;;;;;;7397205;19;20010;-82
2022/01/28 03:43:44;;;;;;;8.05;3.58;;;;;;;;;;7404119;19;20014;-82
2022/01/28 03:46:09;;;;;;;7.63;3.92;;;;;;;;;;7395903;19;20010;-80
2022/01/28 03:48:35;;;;;;;10.68;4.18;;;;;;;;;;7397527;19;20089;-80
2022/01/28 03:51:00;;;;;;;7.13;4.07;;;;;;;;;;7405024;19;19999;-80
2022/01/28 03:53:25;;;;;;;6.85;3.70;;;;;;;;;;7395855;19;20032;-82
2022/01/28 03:55:52;;;;;;;6.50;3.53;;;;;;;;;;7399229;19;20002;-81
2022/01/28 03:58:18;;;;;;;6.18;3.20;;;;;;;;;;7394587;19;20447;-82
2022/01/28 04:00:44;;;;;;;8.00;3.75;;;;;;;;;;7396049;19;20013;-80
2022/01/28 04:03:23;;;;;;;6.38;3.65;;;;;;;;;;7395404;19;20358;-79
2022/01/28 04:11:38;;;;;;;7.55;3.42;;;;;;;;;;7396656;19;20024;-81
2022/01/28 04:14:21;;;;;;;10.93;3.85;;;;;;;;;;7394056;19;20070;-80
2022/01/28 04:19:30;;;;;;;6.20;3.13;;;;;;;;;;7397352;19;20013;-80
2022/01/28 04:21:55;;;;;;;6.45;3.53;;;;;;;;;;7394324;19;20331;-80
2022/01/28 04:24:20;;;;;;;7.97;3.33;;;;;;;;;;7394427;19;20024;-80
2022/01/28 04:26:46;;;;;;;5.22;3.17;;;;;;;;;;7395776;19;20018;-79
2022/01/28 04:29:13;;;;;;;5.30;3.13;;;;;;;;;;7392923;19;20025;-80
2022/01/28 04:31:45;;;;;;;6.63;3.08;;;;;;;;;;7393117;19;20006;-80
2022/01/28 04:34:11;;;;;;;7.30;3.58;;;;;;;;;;7393856;19;20031;-79
2022/01/28 04:36:44;;;;;;;7.18;3.40;;;;;;;;;;7396974;19;20106;-79
2022/01/28 04:39:21;;;;;;;5.82;3.58;;;;;;;;;;7393106;19;20015;-81
2022/01/28 04:44:51;;;;;;;6.68;3.45;;;;;;;;;;7390367;19;20031;-79
2022/01/28 04:47:29;;;;;;;7.20;3.33;;;;;;;;;;7390748;19;20425;-79
2022/01/28 04:52:45;;;;;;;7.30;3.15;;;;;;;;;;7391727;19;20044;-80
2022/01/28 04:58:49;;;;;;;6.65;3.65;;;;;;;;;;7391748;19;20017;-79
2022/01/28 05:27:04;;;;;;;6.53;3.13;;;;;;;;;;7395145;19;20018;-79
2022/01/28 05:29:29;;;;;;;7.15;3.13;;;;;;;;;;7393673;19;20042;-81
2022/01/28 05:31:54;;;;;;;8.20;3.15;;;;;;;;;;7391045;19;20011;-80
2022/01/28 05:34:23;;;;;;;6.70;3.40;;;;;;;;;;7390361;19;20002;-79
2022/01/28 05:36:49;;;;;;;6.55;3.33;;;;;;;;;;7392144;19;20006;-81
2022/01/28 05:39:14;;;;;;;7.57;3.75;;;;;;;;;;7389154;19;20011;-82
2022/01/28 05:41:40;;;;;;;7.45;3.60;;;;;;;;;;7389692;19;20010;-80
2022/01/28 05:44:05;;;;;;;4.55;3.00;;;;;;;;;;7391074;19;20385;-82
2022/01/28 05:46:31;;;;;;;8.05;3.67;;;;;;;;;;7390146;19;20006;-80
2022/01/28 05:48:57;;;;;;;5.88;3.22;;;;;;;;;;7388119;19;20006;-79
2022/01/28 05:51:22;;;;;;;6.57;3.20;;;;;;;;;;7388949;19;20375;-80
2022/01/28 05:53:47;;;;;;;5.70;3.22;;;;;;;;;;7387403;19;20453;-81
2022/01/28 05:56:13;;;;;;;6.45;3.47;;;;;;;;;;7391349;19;20007;-82
2022/01/28 05:58:38;;;;;;;6.50;3.20;;;;;;;;;;7394689;19;20010;-80
2022/01/28 06:01:03;;;;;;;6.28;3.33;;;;;;;;;;7394429;19;20070;-82
2022/01/28 06:03:29;;;;;;;9.43;3.42;;;;;;;;;;7402763;19;19995;-80
2022/01/28 06:05:54;;;;;;;10.68;5.10;;;;;;;;;;7399438;19;20371;-81
2022/01/28 06:08:20;;;;;;;8.32;4.35;;;;;;;;;;7393383;19;20014;-80
2022/01/28 06:10:45;;;;;;;7.00;4.18;;;;;;;;;;7398582;19;20054;-81
2022/01/28 06:13:11;;;;;;;4.47;3.20;;;;;;;;;;7400516;19;20086;-80
2022/01/28 06:15:42;;;;;;;5.32;3.35;;;;;;;;;;7400022;19;20437;-79
2022/01/28 06:18:11;;;;;;;6.13;3.20;;;;;;;;;;7405032;19;20011;-81
2022/01/28 06:20:37;;;;;;;4.30;3.13;;;;;;;;;;7400211;19;20010;-81
2022/01/28 06:23:03;;;;;;;9.10;3.40;;;;;;;;;;7398453;19;20010;-82
2022/01/28 06:25:29;;;;;;;6.82;3.30;;;;;;;;;;7403099;19;20027;-81
2022/01/28 06:27:54;;;;;;;6.68;3.03;;;;;;;;;;7400655;19;20002;-81
2022/01/28 06:30:21;;;;;;;7.82;3.75;;;;;;;;;;7397798;19;20015;-80
2022/01/28 06:32:47;;;;;;;6.40;3.10;;;;;;;;;;7400163;19;20010;-80
2022/01/28 06:35:13;;;;;;;6.28;3.22;;;;;;;;;;7402268;19;20017;-82
2022/01/28 06:37:42;;;;;;;8.18;2.92;;;;;;;;;;7401325;19;20051;-79
2022/01/28 06:40:10;;;;;;;4.90;2.92;;;;;;;;;;7397043;19;20026;-80
2022/01/28 06:42:35;;;;;;;5.38;3.40;;;;;;;;;;7397488;19;20015;-79
2022/01/28 06:45:01;;;;;;;5.80;3.03;;;;;;;;;;7400934;19;20014;-77
2022/01/28 06:47:26;;;;;;;6.82;3.30;;;;;;;;;;7403926;19;20022;-78
2022/01/28 06:49:52;;;;;;;4.60;2.58;;;;;;;;;;7403988;19;20012;-77
2022/01/28 06:52:17;;;;;;;7.47;2.80;;;;;;;;;;7404164;19;20019;-79
2022/01/28 06:54:43;;;;;;;5.32;3.13;;;;;;;;;;7406554;19;20031;-78
2022/01/28 06:57:08;;;;;;;6.65;3.30;;;;;;;;;;7407889;19;20463;-78
2022/01/28 06:59:33;;;;;;;7.25;3.58;;;;;;;;;;7404227;19;20003;-78
2022/01/28 07:01:58;;;;;;;5.80;3.38;;;;;;;;;;7404255;19;20002;-78
2022/01/28 07:04:23;;;;;;;3.67;2.50;;;;;;;;;;7406838;19;20003;-77
2022/01/28 07:06:49;;;;;;;5.03;3.15;;;;;;;;;;7407918;19;20003;-78
2022/01/28 07:09:15;;;;;;;5.15;3.22;;;;;;;;;;7405555;19;20010;-78
2022/01/28 07:11:43;;;;;;;4.63;2.67;;;;;;;;;;7405929;19;20007;-78
2022/01/28 07:14:08;;;;;;;5.93;2.70;;;;;;;;;;7400076;19;20007;-79
2022/01/28 07:16:35;;;;;;;7.72;3.92;;;;;;;;;;7403405;19;20007;-78
2022/01/28 07:19:00;;;;;;;3.85;2.85;;;;;;;;;;7405197;19;19998;-79
2022/01/28 07:21:25;;;;;;;7.78;3.60;;;;;;;;;;7407637;19;19998;-78
2022/01/28 07:23:51;;;;;;;4.50;2.88;;;;;;;;;;7407406;19;20007;-79
2022/01/28 07:26:16;;;;;;;4.35;2.78;;;;;;;;;;7399892;19;20547;-79
2022/01/28 07:28:42;;;;;;;4.75;2.30;;;;;;;;;;7405247;19;20021;-79
2022/01/28 07:31:14;;;;;;;5.60;3.65;;;;;;;;;;7400672;19;20002;-79
2022/01/28 07:33:39;;;;;;;4.82;2.88;;;;;;;;;;7398143;19;19998;-79
2022/01/28 07:36:05;;;;;;;4.47;3.35;;;;;;;;;;7399635;19;20007;-80
2022/01/28 07:38:30;;;;;;;5.45;2.72;;;;;;;;;;7401720;19;20006;-80
2022/01/28 07:40:57;;;;;;;4.25;2.80;;;;;;;;;;7401145;19;20041;-79
2022/01/28 07:43:23;;;;;;;4.68;2.70;;;;;;;;;;7399865;19;20018;-78
2022/01/28 07:45:48;;;;;;;4.07;2.72;;;;;;;;;;7397658;19;20438;-77
2022/01/28 07:48:13;;;;;;;6.22;3.40;;;;;;;;;;7399429;19;20003;-78
2022/01/28 07:50:39;;;;;;;7.28;3.13;;;;;;;;;;7398396;19;20021;-78
2022/01/28 07:53:05;;;;;;;4.72;2.90;;;;;;;;;;7400376;19;20426;-79
2022/01/28 07:55:30;;;;;;;5.20;2.92;;;;;;;;;;7397693;19;20011;-78
2022/01/28 07:57:55;;;;;;;7.50;2.97;;;;;;;;;;7399417;19;20045;-78
2022/01/28 08:00:26;;;;;;;5.53;3.05;;;;;;;;;;7399972;19;20014;-77
2022/01/28 08:02:51;;;;;;;5.47;2.78;;;;;;;;;;7397810;19;20028;-80
2022/01/28 08:05:17;;;;;;;5.07;2.83;;;;;;;;;;7398266;19;20006;-76
2022/01/28 08:07:43;;;;;;;5.97;3.00;;;;;;;;;;7398959;19;20002;-78
2022/01/28 08:10:09;;;;;;;8.25;3.70;;;;;;;;;;7398691;19;20368;-78
2022/01/28 08:12:45;;;;;;;5.25;3.08;;;;;;;;;;7398244;19;20079;-77
2022/01/28 08:15:10;;;;;;;5.25;2.53;;;;;;;;;;7399463;19;20036;-78
2022/01/28 08:17:36;;;;;;;6.53;3.22;;;;;;;;;;7401883;19;20417;-79
2022/01/28 08:20:01;;;;;;;6.30;3.05;;;;;;;;;;7401944;19;20010;-77
2022/01/28 08:22:26;;;;;;;3.60;2.65;;;;;;;;;;7398406;19;20003;-77
2022/01/28 08:24:51;;;;;;;4.85;2.42;;;;;;;;;;7401119;19;20031;-75
2022/01/28 08:27:16;;;;;;;7.35;2.90;;;;;;;;;;7397546;19;20083;-78
2022/01/28 08:29:42;;;;;;;6.40;2.83;;;;;;;;;;7398265;19;20003;-78
2022/01/28 08:32:07;;;;;;;5.30;2.70;;;;;;;;;;7396767;19;20009;-77
2022/01/28 08:34:33;;;;;;;4.00;2.20;;;;;;;;;;7400970;19;20011;-79
2022/01/28 08:37:03;;;;;;;6.70;2.45;;;;;;;;;;7397224;19;20039;-79
2022/01/28 08:39:28;;;;;;;7.65;3.58;;;;;;;;;;7394846;19;20469;-78
2022/01/28 08:41:54;;;;;;;12.90;3.70;;;;;;;;;;7396634;19;20078;-80
2022/01/28 08:44:19;;;;;;;5.35;2.92;;;;;;;;;;7398307;19;20399;-80
2022/01/28 08:46:44;;;;;;;5.63;2.58;;;;;;;;;;7400107;19;20006;-78
2022/01/28 08:49:10;;;;;;;4.10;2.92;;;;;;;;;;7398361;19;20111;-80
2022/01/28 08:51:35;;;;;;;4.70;2.80;;;;;;;;;;7399692;19;20017;-77
2022/01/28 08:54:00;;;;;;;9.40;3.88;;;;;;;;;;7394879;19;20006;-79
2022/01/28 08:56:25;;;;;;;4.78;2.80;;;;;;;;;;7402605;19;20077;-79
2022/01/28 08:58:51;;;;;;;8.25;2.55;;;;;;;;;;7399004;19;20018;-78
2022/01/28 09:01:16;;;;;;;7.30;3.22;;;;;;;;;;7399685;19;20006;-79
2022/01/28 09:03:42;;;;;;;7.88;3.55;;;;;;;;;;7402729;19;20010;-78
2022/01/28 09:06:07;;;;;;;7.80;3.13;;;;;;;;;;7401321;19;20022;-78
2022/01/28 09:08:32;;;;;;;5.72;2.30;;;;;;;;;;7405827;19;20011;-78
2022/01/28 09:11:29;;;;;;;8.65;2.58;;;;;;;;;;7399935;19;20066;-78
2022/01/28 09:13:43;;;;;;;6.85;2.38;;;;;;;;;;7402565;19;20023;-78
2022/01/28 09:16:08;;;;;;;5.45;2.50;;;;;;;;;;7401727;19;20002;-78
2022/01/28 09:18:34;;;;;;;10.30;3.15;;;;;;;;;;7401590;19;20007;-76
2022/01/28 09:20:59;;;;;;;4.55;2.63;;;;;;;;;;7399832;19;20003;-78
2022/01/28 09:23:24;;;;;;;8.65;2.67;;;;;;;;;;7399928;19;20095;-77
2022/01/28 09:25:50;;;;;;;7.32;2.40;;;;;;;;;;7400402;19;20007;-77
2022/01/28 09:28:15;;;;;;;7.05;2.53;;;;;;;;;;7403568;19;20615;-78
2022/01/28 09:30:41;;;;;;;8.65;2.33;;;;;;;;;;7400938;19;20044;-78
2022/01/28 09:33:07;;;;;;;7.93;2.80;;;;;;;;;;7403695;19;19995;-78
2022/01/28 09:35:34;;;;;;;7.32;2.15;;;;;;;;;;7398304;19;20003;-79
2022/01/28 09:38:00;;;;;;;4.95;2.13;;;;;;;;;;7401376;19;19998;-79
2022/01/28 09:40:25;;;;;;;3.30;2.08;;;;;;;;;;7396029;19;20025;-77
2022/01/28 09:42:52;;;;;;;4.68;2.63;;;;;;;;;;7394396;19;20010;-77
2022/01/28 09:45:22;;;;;;;4.18;2.42;;;;;;;;;;7399468;19;20014;-78
2022/01/28 09:47:51;;;;;;;3.22;1.88;;;;;;;;;;7401152;19;20006;-78
2022/01/28 09:50:18;;;;;;;4.93;2.17;;;;;;;;;;7404451;19;20027;-78
2022/01/28 09:52:43;;;;;;;6.82;2.42;;;;;;;;;;7401386;19;20006;-78
2022/01/28 09:55:08;;;;;;;5.13;2.28;;;;;;;;;;7402003;19;20022;-78
2022/01/28 09:57:34;;;;;;;5.25;2.20;;;;;;;;;;7399743;19;19990;-78
2022/01/28 09:59:59;;;;;;;7.88;1.98;;;;;;;;;;7402058;19;20020;-78
2022/01/28 10:02:51;;;;;;;4.95;1.90;;;;;;;;;;7408763;19;20010;-76
2022/01/28 10:05:18;;;;;;;8.52;3.05;;;;;;;;;;7398067;19;20013;-78
2022/01/28 10:08:12;;;;;;;4.40;1.92;;;;;;;;;;7398540;19;20089;-77
2022/01/28 10:11:12;;;;;;;3.08;1.58;;;;;;;;;;7393925;19;20015;-77
2022/01/28 10:13:49;;;;;;;3.35;1.63;;;;;;;;;;7397339;19;20043;-77
2022/01/28 10:16:27;;;;;;;6.38;2.13;;;;;;;;;;7391811;19;19991;-77
2022/01/28 10:18:57;;;;;;;5.72;2.33;;;;;;;;;;7394664;19;20017;-77
2022/01/28 10:21:28;;;;;;;3.83;1.85;;;;;;;;;;7395933;19;20114;-78
2022/01/28 10:24:22;;;;;;;7.55;1.95;;;;;;;;;;7390828;19;20062;-77
2022/01/28 10:26:50;;;;;;;3.45;1.67;;;;;;;;;;7396148;19;20010;-75
2022/01/28 10:29:20;;;;;;;8.30;2.05;;;;;;;;;;7389324;19;20183;-75
2022/01/28 10:31:45;;;;;;;3.97;1.90;;;;;;;;;;7387852;19;20976;-77
2022/01/28 10:34:39;;;;;;;4.32;1.73;;;;;;;;;;7392969;19;20010;-77
2022/01/28 10:37:16;;;;;;;6.60;2.15;;;;;;;;;;7389287;19;20074;-76
2022/01/28 10:39:53;;;;;;;12.05;2.67;;;;;;;;;;7387929;19;20010;-77
2022/01/28 10:42:48;;;;;;;4.60;1.80;;;;;;;;;;7387975;19;20525;-76
2022/01/28 10:45:17;;;;;;;6.05;1.60;;;;;;;;;;7390885;19;19999;-76
2022/01/28 10:47:48;;;;;;;6.90;2.05;;;;;;;;;;7392283;19;20027;-77
2022/01/28 10:50:37;;;;;;;9.63;2.13;;;;;;;;;;7386557;19;20003;-77
2022/01/28 10:53:14;;;;;;;12.90;2.45;;;;;;;;;;7390471;19;20006;-77
2022/01/28 10:55:52;;;;;;;6.03;1.77;;;;;;;;;;7395429;19;20018;-77
2022/01/28 10:58:19;;;;;;;5.53;2.15;;;;;;;;;;7394441;19;20002;-77
2022/01/28 11:00:50;;;;;;;5.13;1.80;;;;;;;;;;7395945;19;20006;-77
2022/01/28 11:03:18;;;;;;;8.52;2.13;;;;;;;;;;7394566;19;20082;-77
2022/01/28 11:05:44;;;;;;;2.97;1.38;;;;;;;;;;7395583;19;20449;-77
2022/01/28 11:08:12;;;;;;;4.47;1.55;;;;;;;;;;7395343;19;20123;-77
2022/01/28 11:10:41;;;;;;;4.10;1.60;;;;;;;;;;7392505;19;20014;-76
2022/01/28 11:13:07;;;;;;;6.85;1.58;;;;;;;;;;7395329;19;20003;-76
2022/01/28 11:15:33;;;;;;;3.05;1.63;;;;;;;;;;7394039;19;20081;-77
2022/01/28 11:18:01;;;;;;;5.50;1.70;;;;;;;;;;7393641;19;20013;-77
2022/01/28 11:20:34;;;;;;;5.95;1.65;;;;;;;;;;7395116;19;20006;-77
2022/01/28 11:23:15;;;;;;;8.32;1.92;;;;;;;;;;7392195;19;20006;-77
2022/01/28 11:26:05;;;;;;;3.95;1.70;;;;;;;;;;7391281;19;20307;-76
2022/01/28 11:28:50;;;;;;;6.15;1.52;;;;;;;;;;7391980;19;20024;-77
2022/01/28 11:31:43;;;;;;;5.22;2.17;;;;;;;;;;7389934;19;20045;-77
2022/01/28 11:34:29;;;;;;;7.20;2.20;;;;;;;;;;7393427;19;20015;-77
2022/01/28 11:37:02;;;;;;;4.75;1.88;;;;;;;;;;7392003;19;20011;-77
2022/01/28 11:39:36;;;;;;;4.25;2.20;;;;;;;;;;7393856;19;20023;-76
2022/01/28 11:42:03;;;;;;;6.90;2.53;;;;;;;;;;7390564;19;20499;-77
2022/01/28 11:44:51;;;;;;;8.32;2.78;;;;;;;;;;7393452;19;20009;-77
2022/01/28 11:47:39;;;;;;;5.25;1.42;;;;;;;;;;7395108;19;20006;-77
2022/01/28 11:50:19;;;;;;;4.90;1.70;;;;;;;;;;7393642;19;20644;-77
2022/01/28 11:52:47;;;;;;;2.63;1.08;;;;;;;;;;7393486;19;20006;-77
2022/01/28 11:55:31;;;;;;;3.33;1.20;;;;;;;;;;7394595;19;20039;-78
2022/01/28 11:58:05;;;;;;;3.55;1.20;;;;;;;;;;7394808;19;20014;-77
2022/01/28 12:00:33;;;;;;;2.58;1.45;;;;;;;;;;7392623;19;20015;-77
2022/01/28 12:02:59;;;;;;;7.60;1.67;;;;;;;;;;7390945;19;20010;-77
2022/01/28 12:05:47;;;;;;;3.60;1.48;;;;;;;;;;7390892;19;20069;-77
2022/01/28 12:08:14;;;;;;;5.13;1.60;;;;;;;;;;7392766;19;20002;-77
2022/01/28 12:10:45;;;;;;;3.70;1.40;;;;;;;;;;7391808;19;20033;-77
2022/01/28 12:13:14;;;;;;;2.03;1.10;;;;;;;;;;7393461;19;20037;-77
2022/01/28 12:16:03;;;;;;;3.78;1.70;;;;;;;;;;7391781;19;20018;-77
2022/01/28 12:18:43;;;;;;;5.03;1.40;;;;;;;;;;7392948;19;20434;-78
2022/01/28 12:21:12;;;;;;;4.03;1.30;;;;;;;;;;7392790;19;20031;-78
2022/01/28 12:23:38;;;;;;;3.85;1.35;;;;;;;;;;7390883;19;20474;-77
2022/01/28 12:26:04;;;;;;;2.50;1.10;;;;;;;;;;7393067;19;20010;-77
2022/01/28 12:28:32;;;;;;;5.53;2.03;;;;;;;;;;7392575;19;20002;-77
2022/01/28 12:31:00;;;;;;;2.42;1.27;;;;;;;;;;7393480;19;20010;-78
2022/01/28 12:33:31;;;;;;;3.75;1.50;;;;;;;;;;7397160;19;20038;-78
2022/01/28 12:35:59;;;;;;;4.82;1.23;;;;;;;;;;7394130;19;20017;-77
2022/01/28 12:38:30;;;;;;;4.30;1.67;;;;;;;;;;7395145;19;20485;-77
2022/01/28 12:40:57;;;;;;;2.95;1.33;;;;;;;;;;7391839;19;20018;-77
2022/01/28 12:43:24;;;;;;;5.78;1.60;;;;;;;;;;7391844;19;20002;-78
2022/01/28 12:46:11;;;;;;;2.72;1.15;;;;;;;;;;7393763;19;20062;-77
2022/01/28 12:48:44;;;;;;;2.88;1.30;;;;;;;;;;7391521;19;20023;-77
2022/01/28 12:51:09;;;;;;;2.45;1.50;;;;;;;;;;7390775;19;20043;-77
2022/01/28 12:53:40;;;;;;;4.90;1.58;;;;;;;;;;7392709;19;20002;-77
2022/01/28 12:56:06;;;;;;;2.10;1.00;;;;;;;;;;7392183;19;20318;-77
2022/01/28 12:58:37;;;;;;;4.18;1.65;;;;;;;;;;7391399;19;20011;-77
2022/01/28 13:01:14;;;;;;;2.97;2.35;;;;;;;;;;7389710;19;20434;-77
2022/01/28 13:03:51;;;;;;;7.38;1.83;;;;;;;;;;7389598;19;20089;-78
2022/01/28 13:06:22;;;;;;;3.47;1.90;;;;;;;;;;7392499;19;19998;-77
2022/01/28 13:08:48;;;;;;;5.78;2.20;;;;;;;;;;7392912;19;20492;-77
2022/01/28 13:11:13;;;;;;;7.82;1.95;;;;;;;;;;7392413;19;20142;-76
2022/01/28 13:13:55;;;;;;;4.65;2.10;;;;;;;;;;7391083;19;20006;-77
2022/01/28 13:16:35;;;;;;;5.20;2.38;;;;;;;;;;7391069;19;20058;-77
2022/01/28 13:19:02;;;;;;;4.03;1.98;;;;;;;;;;7388241;19;20035;-76
2022/01/28 13:21:28;;;;;;;3.92;1.70;;;;;;;;;;7390771;19;20007;-77
2022/01/28 13:24:11;;;;;;;2.17;1.35;;;;;;;;;;7391478;19;20041;-76
2022/01/28 13:27:09;;;;;;;4.18;1.98;;;;;;;;;;7390720;19;20007;-77
2022/01/28 13:29:38;;;;;;;7.50;1.85;;;;;;;;;;7389127;19;20164;-76
2022/01/28 13:32:07;;;;;;;5.40;2.67;;;;;;;;;;7390459;19;20339;-77
2022/01/28 13:34:48;;;;;;;3.53;1.60;;;;;;;;;;7387568;19;20030;-76
2022/01/28 13:37:51;;;;;;;5.35;1.60;;;;;;;;;;7389529;19;20448;-76
2022/01/28 13:40:32;;;;;;;4.07;1.40;;;;;;;;;;7388248;19;20022;-76
2022/01/28 13:43:16;;;;;;;3.25;1.48;;;;;;;;;;7389553;19;20013;-76
2022/01/28 13:45:46;;;;;;;4.95;1.48;;;;;;;;;;7388199;19;20010;-76
2022/01/28 13:48:37;;;;;;;4.00;1.20;;;;;;;;;;7386117;19;20097;-76
2022/01/28 13:51:04;;;;;;;3.33;1.08;;;;;;;;;;7388239;19;20504;-76
2022/01/28 13:56:01;;;;;;;2.42;1.15;;;;;;;;;;7385011;19;20473;-75
2022/01/28 13:58:27;;;;;;;5.85;0.95;;;;;;;;;;7388161;19;20042;-75
2022/01/28 14:00:53;;;;;;;4.22;1.02;;;;;;;;;;7386209;19;20013;-74
2022/01/28 14:03:23;;;;;;;3.28;1.60;;;;;;;;;;7383329;19;20070;-75
2022/01/28 14:05:54;;;;;;;4.32;1.17;;;;;;;;;;7386883;19;20010;-75
2022/01/28 14:08:39;;;;;;;4.75;1.50;;;;;;;;;;7376974;19;20573;-75
2022/01/28 14:11:21;;;;;;;4.82;1.30;;;;;;;;;;7379997;19;21186;-75
2022/01/28 14:14:12;;;;;;;3.08;1.10;;;;;;;;;;7383132;19;20013;-77
2022/01/28 14:16:37;;;;;;;4.00;1.83;;;;;;;;;;7387263;19;20082;-76
2022/01/28 14:19:03;;;;;;;1.85;0.90;;;;;;;;;;7385586;19;20471;-77
2022/01/28 14:21:28;;;;;;;5.07;1.10;;;;;;;;;;7386753;19;20442;-76
2022/01/28 14:23:54;;;;;;;3.08;1.30;;;;;;;;;;7386657;19;20009;-75
2022/01/28 14:26:20;;;;;;;6.10;1.10;;;;;;;;;;7387627;19;20057;-76
2022/01/28 14:31:26;;;;;;;6.45;1.83;;;;;;;;;;7392493;19;20142;-77
2022/01/28 14:33:52;;;;;;;4.50;1.15;;;;;;;;;;7394356;19;20484;-78
2022/01/28 14:36:18;;;;;;;4.78;1.20;;;;;;;;;;7398628;19;20073;-77
2022/01/28 14:38:47;;;;;;;2.00;1.15;;;;;;;;;;7398387;19;20007;-77
2022/01/28 14:41:13;;;;;;;2.65;1.10;;;;;;;;;;7393886;19;20006;-77
2022/01/28 14:43:39;;;;;;;2.70;1.30;;;;;;;;;;7391972;19;20006;-75
2022/01/28 14:46:05;;;;;;;3.10;1.52;;;;;;;;;;7390691;19;20015;-75
2022/01/28 14:48:30;;;;;;;2.92;1.40;;;;;;;;;;7392684;19;19998;-75
2022/01/28 14:50:56;;;;;;;3.78;1.50;;;;;;;;;;7392449;19;20322;-76
2022/01/28 14:53:21;;;;;;;4.05;1.58;;;;;;;;;;7393508;19;20040;-75
2022/01/28 14:55:46;;;;;;;5.40;1.60;;;;;;;;;;7392473;19;20545;-76
2022/01/28 14:58:12;;;;;;;3.70;1.30;;;;;;;;;;7390873;19;20006;-75
2022/01/28 15:00:37;;;;;;;2.10;1.30;;;;;;;;;;7390353;19;20023;-75
2022/01/28 15:03:04;;;;;;;4.65;1.40;;;;;;;;;;7390408;19;20094;-75
2022/01/28 15:05:29;;;;;;;3.88;1.30;;;;;;;;;;7396597;19;19987;-75
2022/01/28 15:07:55;;;;;;;4.90;1.60;;;;;;;;;;7389585;19;20061;-77
2022/01/28 15:10:27;;;;;;;4.47;1.58;;;;;;;;;;7387429;19;20001;-76
2022/01/28 15:12:52;;;;;;;7.30;1.77;;;;;;;;;;7390921;19;20005;-77
2022/01/28 15:15:18;;;;;;;3.88;1.35;;;;;;;;;;7387608;19;20078;-76
2022/01/28 15:17:43;;;;;;;6.45;1.92;;;;;;;;;;7390907;19;20002;-76
2022/01/28 15:20:09;;;;;;;5.85;2.17;;;;;;;;;;7389189;19;20101;-76
2022/01/28 15:22:34;;;;;;;5.25;1.40;;;;;;;;;;7388274;19;20006;-76
2022/01/28 15:25:04;;;;;;;5.28;1.55;;;;;;;;;;7391427;19;20022;-76
2022/01/28 15:27:31;;;;;;;5.70;1.88;;;;;;;;;;7393877;19;20005;-76
2022/01/28 15:34:14;;;;;;;7.30;2.65;;;;;;;;;;7392219;19;20014;-76
2022/01/28 15:37:56;;;;;;;3.55;1.50;;;;;;;;;;7391314;19;20608;-76
2022/01/28 15:40:22;;;;;;;3.85;1.58;;;;;;;;;;7390908;19;20074;-77
2022/01/28 15:42:50;;;;;;;4.15;1.20;;;;;;;;;;7388418;19;20006;-76
2022/01/28 15:45:16;;;;;;;6.65;1.63;;;;;;;;;;7390550;19;20544;-76
2022/01/28 15:47:41;;;;;;;6.15;1.60;;;;;;;;;;7389403;19;20035;-76
2022/01/28 15:50:07;;;;;;;5.95;1.45;;;;;;;;;;7389881;19;20374;-76
2022/01/28 15:52:33;;;;;;;4.70;1.38;;;;;;;;;;7390221;19;20011;-76
2022/01/28 15:54:58;;;;;;;5.03;1.52;;;;;;;;;;7392851;19;20018;-76
2022/01/28 15:57:24;;;;;;;7.45;1.60;;;;;;;;;;7392846;19;20021;-76
2022/01/28 15:59:49;;;;;;;4.18;2.05;;;;;;;;;;7390309;19;20036;-78
2022/01/28 16:02:14;;;;;;;4.65;1.45;;;;;;;;;;7389421;19;20035;-76
2022/01/28 16:04:42;;;;;;;2.95;1.50;;;;;;;;;;7392258;19;20021;-76
2022/01/28 16:07:07;;;;;;;4.57;1.40;;;;;;;;;;7392696;19;20006;-76
2022/01/28 16:09:33;;;;;;;6.82;2.38;;;;;;;;;;7389848;19;20011;-76
2022/01/28 16:12:02;;;;;;;9.18;3.42;;;;;;;;;;7392019;19;20419;-76
2022/01/28 16:14:29;;;;;;;4.38;2.10;;;;;;;;;;7389482;19;20045;-76
2022/01/28 16:19:34;;;;;;;8.90;2.33;;;;;;;;;;7388910;19;20022;-76
2022/01/28 16:22:01;;;;;;;6.15;2.42;;;;;;;;;;7389313;19;20077;-76
2022/01/28 16:24:27;;;;;;;6.47;2.90;;;;;;;;;;7390623;19;20031;-76
2022/01/28 16:26:54;;;;;;;9.00;3.17;;;;;;;;;;7390876;19;20148;-76
2022/01/28 16:29:20;;;;;;;8.10;3.22;;;;;;;;;;7390095;19;20007;-76
2022/01/28 16:31:45;;;;;;;7.57;2.67;;;;;;;;;;7388882;19;20418;-75
2022/01/28 16:34:14;;;;;;;6.32;1.77;;;;;;;;;;7388489;19;20010;-76
2022/01/28 16:36:44;;;;;;;5.90;2.50;;;;;;;;;;7390059;19;20021;-76